Bible School Park, New York
Current Conditions -  °F | °C
As of 6:53 AM on Monday 20 Oct 2014 (Local Time) from KBGM Reporting Station
Clear Clear  
Wind Chill: 28°   Ceiling: Unl
Heat Index: 33°   Visibility: 10mi
Dew Point: 28°   Wind: 6mph
Humidity: 82%   Direction: 190°S
Pressure: 29.98"   Gusts: NA
Location:  42.11°N, 75.97°W
Report Text: KBGM 201053Z 19005KT 10SM CLR 01/M02 A2998 RMK AO2 SLP167 T00061022
Loading
Personal Weather Stations






























Interactive Weather Map
Tropical Storm Tracking
New forecast layout! Learn more

10-Day Weather Forecast

Advertisements
Track Severe Weather on mobile